Impacts METAR Board
IDs:

KICT - Wichita/Eisenhower A, KS, US

Updated at: 1900 UTC 02 Oct 2022
Potential Impact None Slight Moderate High
Time 02/07Z 02/08Z 02/09Z 02/10Z 02/11Z 02/12Z 02/13Z 02/14Z 02/15Z 02/16Z 02/17Z 02/18Z 02/19Z
Temp59 57 56 57 54 54 54 61 67 74 76 79 81
Dewpt38 37 37 38 38 38 39 40 41 41 39 38 37
Altim30.18 30.19 30.19 30.19 30.20 30.22 30.23 30.24 30.26 30.26 30.26 30.24 30.22
VIS10 10 10 10 10 10 10 10 10 10 10 10 10
CIG-- -- -- -- -- -- -- -- -- -- -- -- --
CoverCLRCLRCLRCLRCLRCLRCLRCLRCLRCLRCLRCLRCLR
FltCatVFRVFRVFRVFRVFRVFRVFRVFRVFRVFRVFRVFRVFR
WX--------------------------
WDir901201001101101000130140150150140100
WSpd3 4 6 8 4 4 0 7 5 7 9 6 6
WGst-- -- -- -- -- -- -- -- -- -- 16 -- --
Raw hourly METARs
KICT 020653Z 09003KT 10SM CLR 15/03 A3018 RMK AO2 SLP209 T01500033
KICT 020753Z 12004KT 10SM CLR 14/03 A3019 RMK AO2 SLP213 T01390028
KICT 020853Z 10006KT 10SM CLR 13/03 A3019 RMK AO2 SLP213 T01330028 51007
KICT 020953Z 11008KT 10SM CLR 14/03 A3019 RMK AO2 SLP214 T01390033
KICT 021053Z 11004KT 10SM CLR 12/03 A3020 RMK AO2 SLP219 T01220033
KICT 021153Z 10004KT 10SM CLR 12/03 A3022 RMK AO2 SLP226 T01220033 10156 20122 53010
KICT 021253Z 00000KT 10SM CLR 12/04 A3023 RMK AO2 SLP231 T01220039
KICT 021353Z 13007KT 10SM CLR 16/04 A3024 RMK AO2 SLP234 T01610044
KICT 021453Z 14005KT 10SM CLR 19/05 A3026 RMK AO2 SLP238 T01940050 53013
KICT 021553Z 15007KT 10SM CLR 23/05 A3026 RMK AO2 SLP238 T02330050
KICT 021653Z 15009G16KT 10SM CLR 24/04 A3026 RMK AO2 SLP237 T02440039
KICT 021753Z 14006KT 10SM CLR 26/03 A3024 RMK AO2 SLP232 T02610033 10261 20117 58005
KICT 021853Z 10006KT 10SM CLR 27/03 A3022 RMK AO2 SLP225 T02720028



Page loaded:  19:08 UTC  |   12:08 PM Pacific  |   01:08 PM Mountain  |   02:08 PM Central  |   03:08 PM Eastern

 

ADVISORIES

FORECASTS

FORECASTS

OBSERVATIONS

USER TOOLS

ABOUT US